sensor_id;sensor_type;location;lat;lon;timestamp;temperature;humidity
18506;DHT22;9382;53.242;10.438;2022-09-16T00:00:46;10.80;99.90
18506;DHT22;9382;53.242;10.438;2022-09-16T00:03:14;10.80;99.90
18506;DHT22;9382;53.242;10.438;2022-09-16T00:05:42;10.80;99.90
18506;DHT22;9382;53.242;10.438;2022-09-16T00:08:09;10.80;99.90
18506;DHT22;9382;53.242;10.438;2022-09-16T00:10:37;10.80;99.90
18506;DHT22;9382;53.242;10.438;2022-09-16T00:13:05;10.80;99.90
18506;DHT22;9382;53.242;10.438;2022-09-16T00:15:32;10.80;99.90
18506;DHT22;9382;53.242;10.438;2022-09-16T00:17:59;10.80;99.90
18506;DHT22;9382;53.242;10.438;2022-09-16T00:20:26;10.80;99.90
18506;DHT22;9382;53.242;10.438;2022-09-16T00:22:53;10.70;99.90
18506;DHT22;9382;53.242;10.438;2022-09-16T00:25:19;10.70;99.90
18506;DHT22;9382;53.242;10.438;2022-09-16T00:27:46;10.70;99.90
18506;DHT22;9382;53.242;10.438;2022-09-16T00:30:15;10.70;99.90
18506;DHT22;9382;53.242;10.438;2022-09-16T00:32:42;10.80;99.90
18506;DHT22;9382;53.242;10.438;2022-09-16T00:35:09;10.80;99.90
18506;DHT22;9382;53.242;10.438;2022-09-16T00:37:36;10.80;99.90
18506;DHT22;9382;53.242;10.438;2022-09-16T00:40:03;10.90;99.90
18506;DHT22;9382;53.242;10.438;2022-09-16T00:42:30;10.90;99.90
18506;DHT22;9382;53.242;10.438;2022-09-16T00:44:59;11.00;99.90
18506;DHT22;9382;53.242;10.438;2022-09-16T00:47:31;11.00;99.90
18506;DHT22;9382;53.242;10.438;2022-09-16T00:50:05;11.00;99.90
18506;DHT22;9382;53.242;10.438;2022-09-16T00:52:34;10.90;99.90
18506;DHT22;9382;53.242;10.438;2022-09-16T00:55:05;10.90;99.90
18506;DHT22;9382;53.242;10.438;2022-09-16T00:57:33;10.90;99.90
18506;DHT22;9382;53.242;10.438;2022-09-16T01:00:01;10.90;99.90
18506;DHT22;9382;53.242;10.438;2022-09-16T01:02:30;10.90;99.90
18506;DHT22;9382;53.242;10.438;2022-09-16T01:04:59;10.90;99.90
18506;DHT22;9382;53.242;10.438;2022-09-16T01:07:31;10.80;99.90
18506;DHT22;9382;53.242;10.438;2022-09-16T01:09:59;10.80;99.90
18506;DHT22;9382;53.242;10.438;2022-09-16T01:12:27;10.80;99.90
18506;DHT22;9382;53.242;10.438;2022-09-16T01:14:57;10.70;99.90
18506;DHT22;9382;53.242;10.438;2022-09-16T01:17:32;10.80;99.90
18506;DHT22;9382;53.242;10.438;2022-09-16T01:20:20;10.70;99.90
18506;DHT22;9382;53.242;10.438;2022-09-16T01:23:06;10.70;99.90
18506;DHT22;9382;53.242;10.438;2022-09-16T01:25:46;10.60;99.90
18506;DHT22;9382;53.242;10.438;2022-09-16T01:28:47;10.60;99.90
18506;DHT22;9382;53.242;10.438;2022-09-16T01:31:22;10.60;99.90
18506;DHT22;9382;53.242;10.438;2022-09-16T01:33:58;10.60;99.90
18506;DHT22;9382;53.242;10.438;2022-09-16T01:36:38;10.60;99.90
18506;DHT22;9382;53.242;10.438;2022-09-16T01:39:13;10.50;99.90
18506;DHT22;9382;53.242;10.438;2022-09-16T01:41:54;10.40;99.90
18506;DHT22;9382;53.242;10.438;2022-09-16T01:44:23;10.50;99.90
18506;DHT22;9382;53.242;10.438;2022-09-16T01:47:00;10.40;99.90
18506;DHT22;9382;53.242;10.438;2022-09-16T01:49:37;10.40;99.90
18506;DHT22;9382;53.242;10.438;2022-09-16T01:52:13;10.40;99.90
18506;DHT22;9382;53.242;10.438;2022-09-16T01:54:48;10.40;99.90
18506;DHT22;9382;53.242;10.438;2022-09-16T01:57:20;10.40;99.90
18506;DHT22;9382;53.242;10.438;2022-09-16T01:59:53;10.50;99.90
18506;DHT22;9382;53.242;10.438;2022-09-16T02:02:28;10.50;99.90
18506;DHT22;9382;53.242;10.438;2022-09-16T02:04:59;10.50;99.90
18506;DHT22;9382;53.242;10.438;2022-09-16T02:07:32;10.50;99.90
18506;DHT22;9382;53.242;10.438;2022-09-16T02:10:06;10.60;99.90
18506;DHT22;9382;53.242;10.438;2022-09-16T02:12:37;10.60;99.90
18506;DHT22;9382;53.242;10.438;2022-09-16T02:15:08;10.60;99.90
18506;DHT22;9382;53.242;10.438;2022-09-16T02:17:41;10.50;99.90
18506;DHT22;9382;53.242;10.438;2022-09-16T02:20:13;10.50;99.90
18506;DHT22;9382;53.242;10.438;2022-09-16T02:22:44;10.50;99.90
18506;DHT22;9382;53.242;10.438;2022-09-16T02:25:13;10.50;99.90
18506;DHT22;9382;53.242;10.438;2022-09-16T02:27:42;10.60;99.90
18506;DHT22;9382;53.242;10.438;2022-09-16T02:30:15;10.60;99.90
18506;DHT22;9382;53.242;10.438;2022-09-16T02:32:47;10.70;99.90
18506;DHT22;9382;53.242;10.438;2022-09-16T02:35:17;10.70;99.90
18506;DHT22;9382;53.242;10.438;2022-09-16T02:37:48;10.70;99.90
18506;DHT22;9382;53.242;10.438;2022-09-16T02:40:19;10.70;99.90
18506;DHT22;9382;53.242;10.438;2022-09-16T02:42:48;10.70;99.90
18506;DHT22;9382;53.242;10.438;2022-09-16T02:45:15;10.70;99.90
18506;DHT22;9382;53.242;10.438;2022-09-16T02:47:51;10.70;99.90
18506;DHT22;9382;53.242;10.438;2022-09-16T02:50:26;10.70;99.90
18506;DHT22;9382;53.242;10.438;2022-09-16T02:52:58;10.80;99.90
18506;DHT22;9382;53.242;10.438;2022-09-16T02:55:33;10.70;99.90
18506;DHT22;9382;53.242;10.438;2022-09-16T02:58:02;10.70;99.90
18506;DHT22;9382;53.242;10.438;2022-09-16T03:00:30;10.60;99.90
18506;DHT22;9382;53.242;10.438;2022-09-16T03:02:59;10.60;99.90
18506;DHT22;9382;53.242;10.438;2022-09-16T03:05:26;10.60;99.90
18506;DHT22;9382;53.242;10.438;2022-09-16T03:07:54;10.50;99.90
18506;DHT22;9382;53.242;10.438;2022-09-16T03:10:24;10.50;99.90
18506;DHT22;9382;53.242;10.438;2022-09-16T03:12:56;10.40;99.90
18506;DHT22;9382;53.242;10.438;2022-09-16T03:18:32;10.30;99.90
18506;DHT22;9382;53.242;10.438;2022-09-16T03:21:10;10.30;99.90
18506;DHT22;9382;53.242;10.438;2022-09-16T03:23:47;10.30;99.90
18506;DHT22;9382;53.242;10.438;2022-09-16T03:26:21;10.40;99.90
18506;DHT22;9382;53.242;10.438;2022-09-16T03:29:00;10.50;99.90
18506;DHT22;9382;53.242;10.438;2022-09-16T03:31:31;10.50;99.90
18506;DHT22;9382;53.242;10.438;2022-09-16T03:34:04;10.40;99.90
18506;DHT22;9382;53.242;10.438;2022-09-16T03:36:35;10.50;99.90
18506;DHT22;9382;53.242;10.438;2022-09-16T03:39:04;10.50;99.90
18506;DHT22;9382;53.242;10.438;2022-09-16T03:41:32;10.40;99.90
18506;DHT22;9382;53.242;10.438;2022-09-16T03:44:00;10.50;99.90
18506;DHT22;9382;53.242;10.438;2022-09-16T03:46:27;10.40;99.90
18506;DHT22;9382;53.242;10.438;2022-09-16T03:48:54;10.40;99.90
18506;DHT22;9382;53.242;10.438;2022-09-16T03:51:23;10.40;99.90
18506;DHT22;9382;53.242;10.438;2022-09-16T03:53:50;10.40;99.90
18506;DHT22;9382;53.242;10.438;2022-09-16T03:56:17;10.30;99.90
18506;DHT22;9382;53.242;10.438;2022-09-16T03:58:43;10.30;99.90
18506;DHT22;9382;53.242;10.438;2022-09-16T04:01:10;10.30;99.90
18506;DHT22;9382;53.242;10.438;2022-09-16T04:03:37;10.20;99.90
18506;DHT22;9382;53.242;10.438;2022-09-16T04:06:04;10.20;99.90
18506;DHT22;9382;53.242;10.438;2022-09-16T04:08:32;10.20;99.90
18506;DHT22;9382;53.242;10.438;2022-09-16T04:11:00;10.20;99.90
18506;DHT22;9382;53.242;10.438;2022-09-16T04:13:29;10.10;99.90
18506;DHT22;9382;53.242;10.438;2022-09-16T04:15:56;10.10;99.90
18506;DHT22;9382;53.242;10.438;2022-09-16T04:18:23;10.10;99.90
18506;DHT22;9382;53.242;10.438;2022-09-16T04:20:49;10.10;99.90
18506;DHT22;9382;53.242;10.438;2022-09-16T04:23:16;10.10;99.90
18506;DHT22;9382;53.242;10.438;2022-09-16T04:25:53;10.10;99.90
18506;DHT22;9382;53.242;10.438;2022-09-16T04:28:19;10.20;99.90
18506;DHT22;9382;53.242;10.438;2022-09-16T04:30:46;10.20;99.90
18506;DHT22;9382;53.242;10.438;2022-09-16T04:33:13;10.20;99.90
18506;DHT22;9382;53.242;10.438;2022-09-16T04:35:40;10.20;99.90
18506;DHT22;9382;53.242;10.438;2022-09-16T04:38:06;10.20;99.90
18506;DHT22;9382;53.242;10.438;2022-09-16T04:40:33;10.20;99.90
18506;DHT22;9382;53.242;10.438;2022-09-16T04:43:01;10.20;99.90
18506;DHT22;9382;53.242;10.438;2022-09-16T04:45:28;10.20;99.90
18506;DHT22;9382;53.242;10.438;2022-09-16T04:47:55;10.20;99.90
18506;DHT22;9382;53.242;10.438;2022-09-16T04:50:22;10.20;99.90
18506;DHT22;9382;53.242;10.438;2022-09-16T04:52:48;10.20;99.90
18506;DHT22;9382;53.242;10.438;2022-09-16T04:55:16;10.30;99.90
18506;DHT22;9382;53.242;10.438;2022-09-16T04:57:43;10.40;99.90
18506;DHT22;9382;53.242;10.438;2022-09-16T05:00:12;10.40;99.90
18506;DHT22;9382;53.242;10.438;2022-09-16T05:02:39;10.40;99.90
18506;DHT22;9382;53.242;10.438;2022-09-16T05:05:06;10.40;99.90
18506;DHT22;9382;53.242;10.438;2022-09-16T05:07:33;10.40;99.90
18506;DHT22;9382;53.242;10.438;2022-09-16T05:10:00;10.40;99.90
18506;DHT22;9382;53.242;10.438;2022-09-16T05:12:27;10.40;99.90
18506;DHT22;9382;53.242;10.438;2022-09-16T05:14:54;10.40;99.90
18506;DHT22;9382;53.242;10.438;2022-09-16T05:17:22;10.40;99.90
18506;DHT22;9382;53.242;10.438;2022-09-16T05:19:49;10.40;99.90
18506;DHT22;9382;53.242;10.438;2022-09-16T05:22:15;10.40;99.90
18506;DHT22;9382;53.242;10.438;2022-09-16T05:24:42;10.40;99.90
18506;DHT22;9382;53.242;10.438;2022-09-16T05:27:09;10.40;99.90
18506;DHT22;9382;53.242;10.438;2022-09-16T05:29:36;10.40;99.90
18506;DHT22;9382;53.242;10.438;2022-09-16T05:32:02;10.40;99.90
18506;DHT22;9382;53.242;10.438;2022-09-16T05:34:31;10.40;99.90
18506;DHT22;9382;53.242;10.438;2022-09-16T05:36:59;10.40;99.90
18506;DHT22;9382;53.242;10.438;2022-09-16T05:39:26;10.30;99.90
18506;DHT22;9382;53.242;10.438;2022-09-16T05:41:55;10.30;99.90
18506;DHT22;9382;53.242;10.438;2022-09-16T05:44:22;10.30;99.90
18506;DHT22;9382;53.242;10.438;2022-09-16T05:46:49;10.30;99.90
18506;DHT22;9382;53.242;10.438;2022-09-16T05:49:16;10.20;99.90
18506;DHT22;9382;53.242;10.438;2022-09-16T05:51:47;10.20;99.90
18506;DHT22;9382;53.242;10.438;2022-09-16T05:54:14;10.20;99.90
18506;DHT22;9382;53.242;10.438;2022-09-16T05:56:42;10.20;99.90
18506;DHT22;9382;53.242;10.438;2022-09-16T05:59:11;10.30;99.90
18506;DHT22;9382;53.242;10.438;2022-09-16T06:01:38;10.30;99.90
18506;DHT22;9382;53.242;10.438;2022-09-16T06:04:06;10.30;99.90
18506;DHT22;9382;53.242;10.438;2022-09-16T06:06:36;10.30;99.90
18506;DHT22;9382;53.242;10.438;2022-09-16T06:09:06;10.40;99.90
18506;DHT22;9382;53.242;10.438;2022-09-16T06:11:36;10.40;99.90
18506;DHT22;9382;53.242;10.438;2022-09-16T06:14:03;10.50;99.90
18506;DHT22;9382;53.242;10.438;2022-09-16T06:16:31;10.50;99.90
18506;DHT22;9382;53.242;10.438;2022-09-16T06:18:59;10.50;99.90
18506;DHT22;9382;53.242;10.438;2022-09-16T06:21:26;10.50;99.90
18506;DHT22;9382;53.242;10.438;2022-09-16T06:23:54;10.50;99.90
18506;DHT22;9382;53.242;10.438;2022-09-16T06:26:24;10.50;99.90
18506;DHT22;9382;53.242;10.438;2022-09-16T06:28:51;10.50;99.90
18506;DHT22;9382;53.242;10.438;2022-09-16T06:31:19;10.50;99.90
18506;DHT22;9382;53.242;10.438;2022-09-16T06:33:46;10.60;99.90
18506;DHT22;9382;53.242;10.438;2022-09-16T06:36:16;10.70;99.90
18506;DHT22;9382;53.242;10.438;2022-09-16T06:38:43;10.70;99.90
18506;DHT22;9382;53.242;10.438;2022-09-16T06:41:11;10.80;99.90
18506;DHT22;9382;53.242;10.438;2022-09-16T06:43:40;10.90;99.90
18506;DHT22;9382;53.242;10.438;2022-09-16T06:46:10;11.00;99.90
18506;DHT22;9382;53.242;10.438;2022-09-16T06:48:40;11.00;99.90
18506;DHT22;9382;53.242;10.438;2022-09-16T06:51:11;11.20;99.90
18506;DHT22;9382;53.242;10.438;2022-09-16T06:53:39;11.30;99.90
18506;DHT22;9382;53.242;10.438;2022-09-16T06:56:08;11.40;99.90
18506;DHT22;9382;53.242;10.438;2022-09-16T06:58:39;11.50;99.90
18506;DHT22;9382;53.242;10.438;2022-09-16T07:01:07;11.50;99.90
18506;DHT22;9382;53.242;10.438;2022-09-16T07:03:36;11.50;99.90
18506;DHT22;9382;53.242;10.438;2022-09-16T07:06:04;11.60;99.90
18506;DHT22;9382;53.242;10.438;2022-09-16T07:08:32;11.80;99.90
18506;DHT22;9382;53.242;10.438;2022-09-16T07:11:01;12.00;99.90
18506;DHT22;9382;53.242;10.438;2022-09-16T07:13:28;12.10;99.90
18506;DHT22;9382;53.242;10.438;2022-09-16T07:15:59;12.20;99.90
18506;DHT22;9382;53.242;10.438;2022-09-16T07:18:26;12.30;99.90
18506;DHT22;9382;53.242;10.438;2022-09-16T07:20:59;12.30;99.90
18506;DHT22;9382;53.242;10.438;2022-09-16T07:23:28;12.30;99.90
18506;DHT22;9382;53.242;10.438;2022-09-16T07:25:59;12.40;99.90
18506;DHT22;9382;53.242;10.438;2022-09-16T07:28:26;12.50;99.90
18506;DHT22;9382;53.242;10.438;2022-09-16T07:30:52;12.50;99.90
18506;DHT22;9382;53.242;10.438;2022-09-16T07:33:21;12.60;99.90
18506;DHT22;9382;53.242;10.438;2022-09-16T07:35:47;12.70;99.90
18506;DHT22;9382;53.242;10.438;2022-09-16T07:38:14;12.70;99.90
18506;DHT22;9382;53.242;10.438;2022-09-16T07:40:41;12.80;99.90
18506;DHT22;9382;53.242;10.438;2022-09-16T07:43:07;12.90;99.90
18506;DHT22;9382;53.242;10.438;2022-09-16T07:45:34;12.90;99.90
18506;DHT22;9382;53.242;10.438;2022-09-16T07:48:01;13.00;99.90
18506;DHT22;9382;53.242;10.438;2022-09-16T07:50:29;13.10;99.90
18506;DHT22;9382;53.242;10.438;2022-09-16T07:52:56;13.20;99.90
18506;DHT22;9382;53.242;10.438;2022-09-16T07:55:23;13.20;99.90
18506;DHT22;9382;53.242;10.438;2022-09-16T07:57:49;13.30;99.90
18506;DHT22;9382;53.242;10.438;2022-09-16T08:00:16;13.30;99.90
18506;DHT22;9382;53.242;10.438;2022-09-16T08:02:43;13.40;99.90
18506;DHT22;9382;53.242;10.438;2022-09-16T08:05:10;13.40;99.90
18506;DHT22;9382;53.242;10.438;2022-09-16T08:07:39;13.50;99.90
18506;DHT22;9382;53.242;10.438;2022-09-16T08:10:06;13.70;99.90
18506;DHT22;9382;53.242;10.438;2022-09-16T08:12:33;13.80;99.90
18506;DHT22;9382;53.242;10.438;2022-09-16T08:14:59;13.80;99.90
18506;DHT22;9382;53.242;10.438;2022-09-16T08:17:27;13.90;99.90
18506;DHT22;9382;53.242;10.438;2022-09-16T08:19:53;14.10;99.90
18506;DHT22;9382;53.242;10.438;2022-09-16T08:22:20;14.20;99.90
18506;DHT22;9382;53.242;10.438;2022-09-16T08:24:51;14.20;99.90
18506;DHT22;9382;53.242;10.438;2022-09-16T08:27:18;14.20;99.90
18506;DHT22;9382;53.242;10.438;2022-09-16T08:29:44;14.20;99.90
18506;DHT22;9382;53.242;10.438;2022-09-16T08:32:11;14.40;99.90
18506;DHT22;9382;53.242;10.438;2022-09-16T08:34:38;14.50;99.90
18506;DHT22;9382;53.242;10.438;2022-09-16T08:37:06;14.60;99.90
18506;DHT22;9382;53.242;10.438;2022-09-16T08:39:32;14.90;99.90
18506;DHT22;9382;53.242;10.438;2022-09-16T08:42:15;15.10;99.90
18506;DHT22;9382;53.242;10.438;2022-09-16T08:44:53;15.30;99.90
18506;DHT22;9382;53.242;10.438;2022-09-16T08:47:34;15.30;99.90
18506;DHT22;9382;53.242;10.438;2022-09-16T08:50:04;15.30;99.90
18506;DHT22;9382;53.242;10.438;2022-09-16T08:52:36;15.30;99.90
18506;DHT22;9382;53.242;10.438;2022-09-16T08:55:08;15.50;99.90
18506;DHT22;9382;53.242;10.438;2022-09-16T08:57:44;15.90;99.90
18506;DHT22;9382;53.242;10.438;2022-09-16T09:00:16;16.20;99.90
18506;DHT22;9382;53.242;10.438;2022-09-16T09:02:50;16.30;99.90
18506;DHT22;9382;53.242;10.438;2022-09-16T09:05:26;16.20;99.90
18506;DHT22;9382;53.242;10.438;2022-09-16T09:08:16;16.10;99.90
18506;DHT22;9382;53.242;10.438;2022-09-16T09:10:47;16.00;99.90
18506;DHT22;9382;53.242;10.438;2022-09-16T09:13:28;15.70;99.90
18506;DHT22;9382;53.242;10.438;2022-09-16T09:16:02;15.70;99.90
18506;DHT22;9382;53.242;10.438;2022-09-16T09:18:37;15.80;99.90
18506;DHT22;9382;53.242;10.438;2022-09-16T09:21:15;15.80;99.90
18506;DHT22;9382;53.242;10.438;2022-09-16T09:24:14;15.60;99.90
18506;DHT22;9382;53.242;10.438;2022-09-16T09:26:47;15.60;99.90
18506;DHT22;9382;53.242;10.438;2022-09-16T09:29:39;15.80;99.90
18506;DHT22;9382;53.242;10.438;2022-09-16T09:32:20;16.20;99.90
18506;DHT22;9382;53.242;10.438;2022-09-16T09:35:00;16.70;99.90
18506;DHT22;9382;53.242;10.438;2022-09-16T09:37:46;16.90;99.90
18506;DHT22;9382;53.242;10.438;2022-09-16T09:40:20;16.70;99.90
18506;DHT22;9382;53.242;10.438;2022-09-16T09:42:51;16.40;99.90
18506;DHT22;9382;53.242;10.438;2022-09-16T09:45:23;16.40;99.90
18506;DHT22;9382;53.242;10.438;2022-09-16T09:47:56;16.60;99.90
18506;DHT22;9382;53.242;10.438;2022-09-16T09:50:28;16.60;99.90
18506;DHT22;9382;53.242;10.438;2022-09-16T09:53:12;16.70;99.90
18506;DHT22;9382;53.242;10.438;2022-09-16T09:55:41;16.70;99.90
18506;DHT22;9382;53.242;10.438;2022-09-16T09:58:22;16.80;99.90
18506;DHT22;9382;53.242;10.438;2022-09-16T10:00:50;17.20;99.90
18506;DHT22;9382;53.242;10.438;2022-09-16T10:03:21;17.30;99.90
18506;DHT22;9382;53.242;10.438;2022-09-16T10:05:48;17.10;99.90
18506;DHT22;9382;53.242;10.438;2022-09-16T10:08:20;16.70;99.90
18506;DHT22;9382;53.242;10.438;2022-09-16T10:10:49;16.40;99.90
18506;DHT22;9382;53.242;10.438;2022-09-16T10:13:18;16.40;99.90
18506;DHT22;9382;53.242;10.438;2022-09-16T10:15:45;16.50;99.90
18506;DHT22;9382;53.242;10.438;2022-09-16T10:18:21;16.70;99.90
18506;DHT22;9382;53.242;10.438;2022-09-16T10:21:02;16.80;99.90
18506;DHT22;9382;53.242;10.438;2022-09-16T10:23:29;16.70;99.90
18506;DHT22;9382;53.242;10.438;2022-09-16T10:26:16;16.70;99.90
18506;DHT22;9382;53.242;10.438;2022-09-16T10:28:53;16.60;99.90
18506;DHT22;9382;53.242;10.438;2022-09-16T10:31:20;16.50;99.90
18506;DHT22;9382;53.242;10.438;2022-09-16T10:33:48;16.80;99.90
18506;DHT22;9382;53.242;10.438;2022-09-16T10:36:18;17.40;99.90
18506;DHT22;9382;53.242;10.438;2022-09-16T10:38:50;17.60;99.90
18506;DHT22;9382;53.242;10.438;2022-09-16T10:41:20;17.80;99.90
18506;DHT22;9382;53.242;10.438;2022-09-16T10:43:49;17.80;99.90
18506;DHT22;9382;53.242;10.438;2022-09-16T10:46:17;17.90;99.90
18506;DHT22;9382;53.242;10.438;2022-09-16T10:48:46;17.50;99.90
18506;DHT22;9382;53.242;10.438;2022-09-16T10:51:22;16.70;99.90
18506;DHT22;9382;53.242;10.438;2022-09-16T10:53:52;16.20;99.90
18506;DHT22;9382;53.242;10.438;2022-09-16T10:56:21;15.90;99.90
18506;DHT22;9382;53.242;10.438;2022-09-16T10:58:48;16.20;99.90
18506;DHT22;9382;53.242;10.438;2022-09-16T11:01:29;16.80;99.90
18506;DHT22;9382;53.242;10.438;2022-09-16T11:04:25;17.60;99.90
18506;DHT22;9382;53.242;10.438;2022-09-16T11:07:09;18.40;99.90
18506;DHT22;9382;53.242;10.438;2022-09-16T11:09:44;18.10;99.90
18506;DHT22;9382;53.242;10.438;2022-09-16T11:12:30;17.50;99.90
18506;DHT22;9382;53.242;10.438;2022-09-16T11:15:05;17.00;99.90
18506;DHT22;9382;53.242;10.438;2022-09-16T11:17:47;16.60;99.90
18506;DHT22;9382;53.242;10.438;2022-09-16T11:20:33;16.30;99.90
18506;DHT22;9382;53.242;10.438;2022-09-16T11:23:07;15.80;99.90
18506;DHT22;9382;53.242;10.438;2022-09-16T11:25:44;15.10;99.90
18506;DHT22;9382;53.242;10.438;2022-09-16T11:28:44;14.60;99.90
18506;DHT22;9382;53.242;10.438;2022-09-16T11:31:26;15.20;99.90
18506;DHT22;9382;53.242;10.438;2022-09-16T11:34:00;15.60;99.90
18506;DHT22;9382;53.242;10.438;2022-09-16T11:36:41;15.70;99.90
18506;DHT22;9382;53.242;10.438;2022-09-16T11:39:34;15.60;99.90
18506;DHT22;9382;53.242;10.438;2022-09-16T11:42:11;15.60;99.90
18506;DHT22;9382;53.242;10.438;2022-09-16T11:44:45;15.80;99.90
18506;DHT22;9382;53.242;10.438;2022-09-16T11:47:24;15.70;99.90
18506;DHT22;9382;53.242;10.438;2022-09-16T11:50:12;15.40;99.90
18506;DHT22;9382;53.242;10.438;2022-09-16T11:52:56;16.30;99.90
18506;DHT22;9382;53.242;10.438;2022-09-16T11:55:35;17.30;99.90
18506;DHT22;9382;53.242;10.438;2022-09-16T11:58:19;17.80;99.90
18506;DHT22;9382;53.242;10.438;2022-09-16T12:00:48;18.50;99.90
18506;DHT22;9382;53.242;10.438;2022-09-16T12:03:22;19.20;99.90
18506;DHT22;9382;53.242;10.438;2022-09-16T12:05:55;19.80;99.90
18506;DHT22;9382;53.242;10.438;2022-09-16T12:08:31;20.00;99.90
18506;DHT22;9382;53.242;10.438;2022-09-16T12:11:10;20.50;99.90
18506;DHT22;9382;53.242;10.438;2022-09-16T12:13:43;21.50;99.90
18506;DHT22;9382;53.242;10.438;2022-09-16T12:16:14;22.20;99.90
18506;DHT22;9382;53.242;10.438;2022-09-16T12:18:45;21.90;99.90
18506;DHT22;9382;53.242;10.438;2022-09-16T12:21:19;22.10;99.90
18506;DHT22;9382;53.242;10.438;2022-09-16T12:23:52;23.00;99.90
18506;DHT22;9382;53.242;10.438;2022-09-16T12:26:25;23.60;99.90
18506;DHT22;9382;53.242;10.438;2022-09-16T12:28:55;23.90;99.90
18506;DHT22;9382;53.242;10.438;2022-09-16T12:31:31;24.40;99.90
18506;DHT22;9382;53.242;10.438;2022-09-16T12:34:02;24.60;99.90
18506;DHT22;9382;53.242;10.438;2022-09-16T12:36:32;25.00;99.90
18506;DHT22;9382;53.242;10.438;2022-09-16T12:39:00;24.60;99.90
18506;DHT22;9382;53.242;10.438;2022-09-16T12:41:46;22.40;99.90
18506;DHT22;9382;53.242;10.438;2022-09-16T12:47:39;18.80;99.90
18506;DHT22;9382;53.242;10.438;2022-09-16T12:50:35;17.20;99.90
18506;DHT22;9382;53.242;10.438;2022-09-16T12:53:33;16.10;99.90
18506;DHT22;9382;53.242;10.438;2022-09-16T12:56:07;15.50;99.90
18506;DHT22;9382;53.242;10.438;2022-09-16T12:58:52;15.10;99.90
18506;DHT22;9382;53.242;10.438;2022-09-16T13:01:24;15.10;99.90
18506;DHT22;9382;53.242;10.438;2022-09-16T13:03:54;15.10;99.90
18506;DHT22;9382;53.242;10.438;2022-09-16T13:06:24;15.20;99.90
18506;DHT22;9382;53.242;10.438;2022-09-16T13:08:52;15.50;99.90
18506;DHT22;9382;53.242;10.438;2022-09-16T13:11:22;17.30;99.90
18506;DHT22;9382;53.242;10.438;2022-09-16T13:13:52;19.80;99.90
18506;DHT22;9382;53.242;10.438;2022-09-16T13:16:31;21.80;99.90
18506;DHT22;9382;53.242;10.438;2022-09-16T13:19:27;23.10;99.90
18506;DHT22;9382;53.242;10.438;2022-09-16T13:21:59;24.10;99.90
18506;DHT22;9382;53.242;10.438;2022-09-16T13:24:34;24.00;99.90
18506;DHT22;9382;53.242;10.438;2022-09-16T13:27:01;23.80;99.90
18506;DHT22;9382;53.242;10.438;2022-09-16T13:29:43;24.00;99.90
18506;DHT22;9382;53.242;10.438;2022-09-16T13:32:26;22.90;99.90
18506;DHT22;9382;53.242;10.438;2022-09-16T13:35:01;23.00;99.90
18506;DHT22;9382;53.242;10.438;2022-09-16T13:37:28;23.40;99.90
18506;DHT22;9382;53.242;10.438;2022-09-16T13:39:54;23.10;99.90
18506;DHT22;9382;53.242;10.438;2022-09-16T13:42:21;23.70;99.90
18506;DHT22;9382;53.242;10.438;2022-09-16T13:44:51;22.60;99.90
18506;DHT22;9382;53.242;10.438;2022-09-16T13:47:29;21.20;99.90
18506;DHT22;9382;53.242;10.438;2022-09-16T13:50:04;20.20;99.90
18506;DHT22;9382;53.242;10.438;2022-09-16T13:52:34;19.30;99.90
18506;DHT22;9382;53.242;10.438;2022-09-16T13:55:03;18.40;99.90
18506;DHT22;9382;53.242;10.438;2022-09-16T14:00:23;16.60;99.90
18506;DHT22;9382;53.242;10.438;2022-09-16T14:03:10;15.50;99.90
18506;DHT22;9382;53.242;10.438;2022-09-16T14:05:52;14.80;99.90
18506;DHT22;9382;53.242;10.438;2022-09-16T14:08:27;14.20;99.90
18506;DHT22;9382;53.242;10.438;2022-09-16T14:11:03;13.80;99.90
18506;DHT22;9382;53.242;10.438;2022-09-16T14:13:36;13.80;99.90
18506;DHT22;9382;53.242;10.438;2022-09-16T14:16:11;13.70;99.90
18506;DHT22;9382;53.242;10.438;2022-09-16T14:18:50;13.60;99.90
18506;DHT22;9382;53.242;10.438;2022-09-16T14:21:20;13.40;99.90
18506;DHT22;9382;53.242;10.438;2022-09-16T14:23:47;13.40;99.90
18506;DHT22;9382;53.242;10.438;2022-09-16T14:26:16;13.40;99.90
18506;DHT22;9382;53.242;10.438;2022-09-16T14:28:43;13.50;99.90
18506;DHT22;9382;53.242;10.438;2022-09-16T14:31:16;13.60;99.90
18506;DHT22;9382;53.242;10.438;2022-09-16T14:33:45;13.50;99.90
18506;DHT22;9382;53.242;10.438;2022-09-16T14:36:17;13.40;99.90
18506;DHT22;9382;53.242;10.438;2022-09-16T14:38:47;13.30;99.90
18506;DHT22;9382;53.242;10.438;2022-09-16T14:41:21;13.10;99.90
18506;DHT22;9382;53.242;10.438;2022-09-16T14:43:50;13.10;99.90
18506;DHT22;9382;53.242;10.438;2022-09-16T14:46:18;13.00;99.90
18506;DHT22;9382;53.242;10.438;2022-09-16T14:48:45;13.00;99.90
18506;DHT22;9382;53.242;10.438;2022-09-16T14:51:19;12.80;99.90
18506;DHT22;9382;53.242;10.438;2022-09-16T14:53:53;12.50;99.90
18506;DHT22;9382;53.242;10.438;2022-09-16T14:56:21;12.40;99.90
18506;DHT22;9382;53.242;10.438;2022-09-16T14:58:48;12.20;99.90
18506;DHT22;9382;53.242;10.438;2022-09-16T15:01:20;12.10;99.90
18506;DHT22;9382;53.242;10.438;2022-09-16T15:03:50;12.00;99.90
18506;DHT22;9382;53.242;10.438;2022-09-16T15:06:20;11.90;99.90
18506;DHT22;9382;53.242;10.438;2022-09-16T15:08:50;11.70;99.90
18506;DHT22;9382;53.242;10.438;2022-09-16T15:11:21;11.50;99.90
18506;DHT22;9382;53.242;10.438;2022-09-16T15:13:50;11.50;99.90
18506;DHT22;9382;53.242;10.438;2022-09-16T15:16:21;11.40;99.90
18506;DHT22;9382;53.242;10.438;2022-09-16T15:18:52;11.40;99.90
18506;DHT22;9382;53.242;10.438;2022-09-16T15:21:23;11.30;99.90
18506;DHT22;9382;53.242;10.438;2022-09-16T15:23:53;11.30;99.90
18506;DHT22;9382;53.242;10.438;2022-09-16T15:26:22;11.30;99.90
18506;DHT22;9382;53.242;10.438;2022-09-16T15:28:51;11.20;99.90
18506;DHT22;9382;53.242;10.438;2022-09-16T15:31:31;11.20;99.90
18506;DHT22;9382;53.242;10.438;2022-09-16T15:34:00;11.10;99.90
18506;DHT22;9382;53.242;10.438;2022-09-16T15:36:33;11.20;99.90
18506;DHT22;9382;53.242;10.438;2022-09-16T15:39:00;11.20;99.90
18506;DHT22;9382;53.242;10.438;2022-09-16T15:41:27;11.10;99.90
18506;DHT22;9382;53.242;10.438;2022-09-16T15:43:57;11.10;99.90
18506;DHT22;9382;53.242;10.438;2022-09-16T15:46:24;11.20;99.90
18506;DHT22;9382;53.242;10.438;2022-09-16T15:48:54;11.10;99.90
18506;DHT22;9382;53.242;10.438;2022-09-16T15:51:29;11.10;99.90
18506;DHT22;9382;53.242;10.438;2022-09-16T15:54:01;11.10;99.90
18506;DHT22;9382;53.242;10.438;2022-09-16T15:56:33;11.10;99.90
18506;DHT22;9382;53.242;10.438;2022-09-16T15:59:05;11.00;99.90
18506;DHT22;9382;53.242;10.438;2022-09-16T16:01:46;11.10;99.90
18506;DHT22;9382;53.242;10.438;2022-09-16T16:04:21;11.20;99.90
18506;DHT22;9382;53.242;10.438;2022-09-16T16:06:52;11.10;99.90